sensor_id;sensor_type;location;lat;lon;timestamp;temperature;humidity
17948;DHT22;9099;47.958;11.366;2022-08-14T00:02:11;17.80;99.90
17948;DHT22;9099;47.958;11.366;2022-08-14T00:04:38;17.70;99.90
17948;DHT22;9099;47.958;11.366;2022-08-14T00:07:06;17.70;99.90
17948;DHT22;9099;47.958;11.366;2022-08-14T00:09:33;17.60;99.90
17948;DHT22;9099;47.958;11.366;2022-08-14T00:12:00;17.50;99.90
17948;DHT22;9099;47.958;11.366;2022-08-14T00:14:30;17.40;99.90
17948;DHT22;9099;47.958;11.366;2022-08-14T00:16:57;17.30;99.90
17948;DHT22;9099;47.958;11.366;2022-08-14T00:19:24;17.30;99.90
17948;DHT22;9099;47.958;11.366;2022-08-14T00:21:51;17.30;99.90
17948;DHT22;9099;47.958;11.366;2022-08-14T00:24:20;17.20;99.90
17948;DHT22;9099;47.958;11.366;2022-08-14T00:26:48;17.20;99.90
17948;DHT22;9099;47.958;11.366;2022-08-14T00:29:15;17.10;99.90
17948;DHT22;9099;47.958;11.366;2022-08-14T00:31:42;17.10;99.90
17948;DHT22;9099;47.958;11.366;2022-08-14T00:34:08;17.10;99.90
17948;DHT22;9099;47.958;11.366;2022-08-14T00:36:35;17.00;99.90
17948;DHT22;9099;47.958;11.366;2022-08-14T00:39:03;16.90;99.90
17948;DHT22;9099;47.958;11.366;2022-08-14T00:41:32;16.80;99.90
17948;DHT22;9099;47.958;11.366;2022-08-14T00:43:59;16.90;99.90
17948;DHT22;9099;47.958;11.366;2022-08-14T00:46:26;16.90;99.90
17948;DHT22;9099;47.958;11.366;2022-08-14T00:48:53;16.90;99.90
17948;DHT22;9099;47.958;11.366;2022-08-14T00:51:20;17.00;99.90
17948;DHT22;9099;47.958;11.366;2022-08-14T00:53:47;16.90;99.90
17948;DHT22;9099;47.958;11.366;2022-08-14T00:56:16;16.90;99.90
17948;DHT22;9099;47.958;11.366;2022-08-14T00:58:44;16.80;99.90
17948;DHT22;9099;47.958;11.366;2022-08-14T01:01:11;16.90;99.90
17948;DHT22;9099;47.958;11.366;2022-08-14T01:03:40;16.80;99.90
17948;DHT22;9099;47.958;11.366;2022-08-14T01:06:08;16.90;99.90
17948;DHT22;9099;47.958;11.366;2022-08-14T01:08:37;16.90;99.90
17948;DHT22;9099;47.958;11.366;2022-08-14T01:11:05;16.90;99.90
17948;DHT22;9099;47.958;11.366;2022-08-14T01:13:35;16.80;99.90
17948;DHT22;9099;47.958;11.366;2022-08-14T01:16:06;16.70;99.90
17948;DHT22;9099;47.958;11.366;2022-08-14T01:18:33;16.70;99.90
17948;DHT22;9099;47.958;11.366;2022-08-14T01:21:23;16.70;99.90
17948;DHT22;9099;47.958;11.366;2022-08-14T01:23:52;16.70;99.90
17948;DHT22;9099;47.958;11.366;2022-08-14T01:26:20;16.60;99.90
17948;DHT22;9099;47.958;11.366;2022-08-14T01:28:48;16.40;99.90
17948;DHT22;9099;47.958;11.366;2022-08-14T01:31:21;16.20;99.90
17948;DHT22;9099;47.958;11.366;2022-08-14T01:33:51;16.00;99.90
17948;DHT22;9099;47.958;11.366;2022-08-14T01:36:19;15.90;99.90
17948;DHT22;9099;47.958;11.366;2022-08-14T01:38:48;15.80;99.90
17948;DHT22;9099;47.958;11.366;2022-08-14T01:41:17;15.80;99.90
17948;DHT22;9099;47.958;11.366;2022-08-14T01:43:47;15.70;99.90
17948;DHT22;9099;47.958;11.366;2022-08-14T01:46:15;15.70;99.90
17948;DHT22;9099;47.958;11.366;2022-08-14T01:48:43;15.60;99.90
17948;DHT22;9099;47.958;11.366;2022-08-14T01:51:13;15.60;99.90
17948;DHT22;9099;47.958;11.366;2022-08-14T01:53:43;15.60;99.90
17948;DHT22;9099;47.958;11.366;2022-08-14T01:56:12;15.50;99.90
17948;DHT22;9099;47.958;11.366;2022-08-14T01:58:43;15.50;99.90
17948;DHT22;9099;47.958;11.366;2022-08-14T02:01:13;15.50;99.90
17948;DHT22;9099;47.958;11.366;2022-08-14T02:03:40;15.60;99.90
17948;DHT22;9099;47.958;11.366;2022-08-14T02:06:07;15.60;99.90
17948;DHT22;9099;47.958;11.366;2022-08-14T02:08:36;15.60;99.90
17948;DHT22;9099;47.958;11.366;2022-08-14T02:11:05;15.60;99.90
17948;DHT22;9099;47.958;11.366;2022-08-14T02:13:54;15.60;99.90
17948;DHT22;9099;47.958;11.366;2022-08-14T02:16:25;15.60;99.90
17948;DHT22;9099;47.958;11.366;2022-08-14T02:18:56;15.50;99.90
17948;DHT22;9099;47.958;11.366;2022-08-14T02:21:24;15.40;99.90
17948;DHT22;9099;47.958;11.366;2022-08-14T02:23:53;15.40;99.90
17948;DHT22;9099;47.958;11.366;2022-08-14T02:26:22;15.40;99.90
17948;DHT22;9099;47.958;11.366;2022-08-14T02:28:52;15.30;99.90
17948;DHT22;9099;47.958;11.366;2022-08-14T02:31:20;15.30;99.90
17948;DHT22;9099;47.958;11.366;2022-08-14T02:33:47;15.30;99.90
17948;DHT22;9099;47.958;11.366;2022-08-14T02:36:14;15.20;99.90
17948;DHT22;9099;47.958;11.366;2022-08-14T02:38:41;15.20;99.90
17948;DHT22;9099;47.958;11.366;2022-08-14T02:41:10;15.20;99.90
17948;DHT22;9099;47.958;11.366;2022-08-14T02:43:39;15.30;99.90
17948;DHT22;9099;47.958;11.366;2022-08-14T02:46:08;15.20;99.90
17948;DHT22;9099;47.958;11.366;2022-08-14T02:48:38;15.20;99.90
17948;DHT22;9099;47.958;11.366;2022-08-14T02:51:07;15.20;99.90
17948;DHT22;9099;47.958;11.366;2022-08-14T02:53:36;15.20;99.90
17948;DHT22;9099;47.958;11.366;2022-08-14T02:56:04;15.20;99.90
17948;DHT22;9099;47.958;11.366;2022-08-14T02:58:33;15.20;99.90
17948;DHT22;9099;47.958;11.366;2022-08-14T03:01:03;15.20;99.90
17948;DHT22;9099;47.958;11.366;2022-08-14T03:03:32;15.20;99.90
17948;DHT22;9099;47.958;11.366;2022-08-14T03:05:59;15.20;99.90
17948;DHT22;9099;47.958;11.366;2022-08-14T03:08:26;15.20;99.90
17948;DHT22;9099;47.958;11.366;2022-08-14T03:10:56;15.20;99.90
17948;DHT22;9099;47.958;11.366;2022-08-14T03:13:24;15.20;99.90
17948;DHT22;9099;47.958;11.366;2022-08-14T03:15:51;15.20;99.90
17948;DHT22;9099;47.958;11.366;2022-08-14T03:18:20;15.20;99.90
17948;DHT22;9099;47.958;11.366;2022-08-14T03:20:50;15.20;99.90
17948;DHT22;9099;47.958;11.366;2022-08-14T03:23:18;15.20;99.90
17948;DHT22;9099;47.958;11.366;2022-08-14T03:25:46;15.10;99.90
17948;DHT22;9099;47.958;11.366;2022-08-14T03:28:13;15.10;99.90
17948;DHT22;9099;47.958;11.366;2022-08-14T03:30:41;15.10;99.90
17948;DHT22;9099;47.958;11.366;2022-08-14T03:33:10;15.20;99.90
17948;DHT22;9099;47.958;11.366;2022-08-14T03:35:38;15.30;99.90
17948;DHT22;9099;47.958;11.366;2022-08-14T03:38:08;15.30;99.90
17948;DHT22;9099;47.958;11.366;2022-08-14T03:40:36;15.30;99.90
17948;DHT22;9099;47.958;11.366;2022-08-14T03:43:04;15.30;99.90
17948;DHT22;9099;47.958;11.366;2022-08-14T03:45:32;15.40;99.90
17948;DHT22;9099;47.958;11.366;2022-08-14T03:48:01;15.40;99.90
17948;DHT22;9099;47.958;11.366;2022-08-14T03:50:30;15.40;99.90
17948;DHT22;9099;47.958;11.366;2022-08-14T03:52:59;15.40;99.90
17948;DHT22;9099;47.958;11.366;2022-08-14T03:55:28;15.20;99.90
17948;DHT22;9099;47.958;11.366;2022-08-14T03:57:55;15.10;99.90
17948;DHT22;9099;47.958;11.366;2022-08-14T04:00:22;15.00;99.90
17948;DHT22;9099;47.958;11.366;2022-08-14T04:02:49;14.90;99.90
17948;DHT22;9099;47.958;11.366;2022-08-14T04:05:16;14.90;99.90
17948;DHT22;9099;47.958;11.366;2022-08-14T04:07:43;14.90;99.90
17948;DHT22;9099;47.958;11.366;2022-08-14T04:10:11;14.90;99.90
17948;DHT22;9099;47.958;11.366;2022-08-14T04:12:40;14.90;99.90
17948;DHT22;9099;47.958;11.366;2022-08-14T04:15:08;14.90;99.90
17948;DHT22;9099;47.958;11.366;2022-08-14T04:17:35;14.90;99.90
17948;DHT22;9099;47.958;11.366;2022-08-14T04:20:04;14.80;99.90
17948;DHT22;9099;47.958;11.366;2022-08-14T04:22:32;14.80;99.90
17948;DHT22;9099;47.958;11.366;2022-08-14T04:25:00;14.70;99.90
17948;DHT22;9099;47.958;11.366;2022-08-14T04:27:27;14.70;99.90
17948;DHT22;9099;47.958;11.366;2022-08-14T04:29:56;14.70;99.90
17948;DHT22;9099;47.958;11.366;2022-08-14T04:32:23;14.70;99.90
17948;DHT22;9099;47.958;11.366;2022-08-14T04:34:52;14.80;99.90
17948;DHT22;9099;47.958;11.366;2022-08-14T04:37:21;14.70;99.90
17948;DHT22;9099;47.958;11.366;2022-08-14T04:40:07;14.70;99.90
17948;DHT22;9099;47.958;11.366;2022-08-14T04:42:51;14.80;99.90
17948;DHT22;9099;47.958;11.366;2022-08-14T04:45:38;14.80;99.90
17948;DHT22;9099;47.958;11.366;2022-08-14T04:48:07;14.90;99.90
17948;DHT22;9099;47.958;11.366;2022-08-14T04:50:43;15.00;99.90
17948;DHT22;9099;47.958;11.366;2022-08-14T04:53:14;15.10;99.90
17948;DHT22;9099;47.958;11.366;2022-08-14T04:55:43;15.20;99.90
17948;DHT22;9099;47.958;11.366;2022-08-14T04:58:12;15.30;99.90
17948;DHT22;9099;47.958;11.366;2022-08-14T05:00:40;15.40;99.90
17948;DHT22;9099;47.958;11.366;2022-08-14T05:03:08;15.60;99.90
17948;DHT22;9099;47.958;11.366;2022-08-14T05:05:35;15.60;99.90
17948;DHT22;9099;47.958;11.366;2022-08-14T05:08:04;15.80;99.90
17948;DHT22;9099;47.958;11.366;2022-08-14T05:10:38;15.80;99.90
17948;DHT22;9099;47.958;11.366;2022-08-14T05:13:05;15.90;99.90
17948;DHT22;9099;47.958;11.366;2022-08-14T05:15:33;16.10;99.90
17948;DHT22;9099;47.958;11.366;2022-08-14T05:18:03;16.20;99.90
17948;DHT22;9099;47.958;11.366;2022-08-14T05:20:31;16.40;99.90
17948;DHT22;9099;47.958;11.366;2022-08-14T05:22:58;16.60;99.90
17948;DHT22;9099;47.958;11.366;2022-08-14T05:25:25;16.70;99.90
17948;DHT22;9099;47.958;11.366;2022-08-14T05:27:52;16.90;99.90
17948;DHT22;9099;47.958;11.366;2022-08-14T05:30:20;17.20;99.90
17948;DHT22;9099;47.958;11.366;2022-08-14T05:32:47;17.50;99.90
17948;DHT22;9099;47.958;11.366;2022-08-14T05:35:16;17.70;99.90
17948;DHT22;9099;47.958;11.366;2022-08-14T05:37:43;18.20;99.90
17948;DHT22;9099;47.958;11.366;2022-08-14T05:40:11;18.60;99.90
17948;DHT22;9099;47.958;11.366;2022-08-14T05:42:38;19.00;99.90
17948;DHT22;9099;47.958;11.366;2022-08-14T05:45:06;19.40;99.90
17948;DHT22;9099;47.958;11.366;2022-08-14T05:47:38;20.00;99.90
17948;DHT22;9099;47.958;11.366;2022-08-14T05:50:10;20.60;99.90
17948;DHT22;9099;47.958;11.366;2022-08-14T05:52:39;21.20;99.90
17948;DHT22;9099;47.958;11.366;2022-08-14T05:55:08;21.90;99.90
17948;DHT22;9099;47.958;11.366;2022-08-14T05:57:46;22.50;99.90
17948;DHT22;9099;47.958;11.366;2022-08-14T06:00:14;23.20;99.90
17948;DHT22;9099;47.958;11.366;2022-08-14T06:02:42;23.90;99.90
17948;DHT22;9099;47.958;11.366;2022-08-14T06:05:09;24.40;99.90
17948;DHT22;9099;47.958;11.366;2022-08-14T06:07:36;24.70;99.90
17948;DHT22;9099;47.958;11.366;2022-08-14T06:10:06;25.10;99.90
17948;DHT22;9099;47.958;11.366;2022-08-14T06:12:34;25.50;99.90
17948;DHT22;9099;47.958;11.366;2022-08-14T06:15:01;25.80;99.90
17948;DHT22;9099;47.958;11.366;2022-08-14T06:17:28;26.10;99.90
17948;DHT22;9099;47.958;11.366;2022-08-14T06:19:55;26.20;99.90
17948;DHT22;9099;47.958;11.366;2022-08-14T06:22:22;26.00;99.90
17948;DHT22;9099;47.958;11.366;2022-08-14T06:24:49;26.30;99.90
17948;DHT22;9099;47.958;11.366;2022-08-14T06:27:18;26.20;99.90
17948;DHT22;9099;47.958;11.366;2022-08-14T06:29:45;26.10;99.90
17948;DHT22;9099;47.958;11.366;2022-08-14T06:32:12;26.30;99.90
17948;DHT22;9099;47.958;11.366;2022-08-14T06:34:39;26.00;99.90
17948;DHT22;9099;47.958;11.366;2022-08-14T06:37:06;25.70;99.90
17948;DHT22;9099;47.958;11.366;2022-08-14T06:39:32;25.50;99.90
17948;DHT22;9099;47.958;11.366;2022-08-14T06:41:59;25.10;99.90
17948;DHT22;9099;47.958;11.366;2022-08-14T06:44:29;24.80;99.90
17948;DHT22;9099;47.958;11.366;2022-08-14T06:46:56;24.50;99.90
17948;DHT22;9099;47.958;11.366;2022-08-14T06:49:25;24.00;99.90
17948;DHT22;9099;47.958;11.366;2022-08-14T06:51:52;23.70;99.90
17948;DHT22;9099;47.958;11.366;2022-08-14T06:54:19;23.70;99.90
17948;DHT22;9099;47.958;11.366;2022-08-14T06:56:46;23.70;99.90
17948;DHT22;9099;47.958;11.366;2022-08-14T06:59:13;23.60;99.90
17948;DHT22;9099;47.958;11.366;2022-08-14T07:01:42;23.60;99.90
17948;DHT22;9099;47.958;11.366;2022-08-14T07:04:26;23.30;99.90
17948;DHT22;9099;47.958;11.366;2022-08-14T07:07:11;23.30;99.90
17948;DHT22;9099;47.958;11.366;2022-08-14T07:09:38;23.20;99.90
17948;DHT22;9099;47.958;11.366;2022-08-14T07:12:05;23.20;99.90
17948;DHT22;9099;47.958;11.366;2022-08-14T07:14:33;23.20;99.90
17948;DHT22;9099;47.958;11.366;2022-08-14T07:17:01;23.30;99.90
17948;DHT22;9099;47.958;11.366;2022-08-14T07:19:29;23.40;99.90
17948;DHT22;9099;47.958;11.366;2022-08-14T07:21:56;23.50;99.90
17948;DHT22;9099;47.958;11.366;2022-08-14T07:24:23;23.40;99.90
17948;DHT22;9099;47.958;11.366;2022-08-14T07:26:50;23.50;99.90
17948;DHT22;9099;47.958;11.366;2022-08-14T07:29:17;23.60;99.90
17948;DHT22;9099;47.958;11.366;2022-08-14T07:31:46;23.70;99.90
17948;DHT22;9099;47.958;11.366;2022-08-14T07:34:15;23.80;99.90
17948;DHT22;9099;47.958;11.366;2022-08-14T07:36:42;23.90;99.90
17948;DHT22;9099;47.958;11.366;2022-08-14T07:39:09;23.90;99.90
17948;DHT22;9099;47.958;11.366;2022-08-14T07:41:36;23.90;99.90
17948;DHT22;9099;47.958;11.366;2022-08-14T07:44:03;23.90;99.90
17948;DHT22;9099;47.958;11.366;2022-08-14T07:46:30;24.10;99.90
17948;DHT22;9099;47.958;11.366;2022-08-14T07:48:57;24.20;99.90
17948;DHT22;9099;47.958;11.366;2022-08-14T07:51:26;24.30;99.90
17948;DHT22;9099;47.958;11.366;2022-08-14T07:53:53;24.50;99.90
17948;DHT22;9099;47.958;11.366;2022-08-14T07:56:20;24.70;99.90
17948;DHT22;9099;47.958;11.366;2022-08-14T07:58:47;24.90;99.90
17948;DHT22;9099;47.958;11.366;2022-08-14T08:01:15;25.00;99.90
17948;DHT22;9099;47.958;11.366;2022-08-14T08:03:45;25.30;99.90
17948;DHT22;9099;47.958;11.366;2022-08-14T08:06:15;25.70;99.90
17948;DHT22;9099;47.958;11.366;2022-08-14T08:08:45;25.70;99.90
17948;DHT22;9099;47.958;11.366;2022-08-14T08:11:14;25.90;99.90
17948;DHT22;9099;47.958;11.366;2022-08-14T08:13:44;26.20;99.90
17948;DHT22;9099;47.958;11.366;2022-08-14T08:16:11;26.70;99.90
17948;DHT22;9099;47.958;11.366;2022-08-14T08:18:38;27.10;99.90
17948;DHT22;9099;47.958;11.366;2022-08-14T08:21:05;27.50;99.90
17948;DHT22;9099;47.958;11.366;2022-08-14T08:23:32;27.70;99.90
17948;DHT22;9099;47.958;11.366;2022-08-14T08:26:01;28.00;99.90
17948;DHT22;9099;47.958;11.366;2022-08-14T08:28:29;28.20;99.50
17948;DHT22;9099;47.958;11.366;2022-08-14T08:30:58;28.40;98.70
17948;DHT22;9099;47.958;11.366;2022-08-14T08:33:28;28.80;96.30
17948;DHT22;9099;47.958;11.366;2022-08-14T08:35:57;29.10;97.70
17948;DHT22;9099;47.958;11.366;2022-08-14T08:38:25;29.50;96.60
17948;DHT22;9099;47.958;11.366;2022-08-14T08:40:54;29.80;96.00
17948;DHT22;9099;47.958;11.366;2022-08-14T08:43:24;29.80;95.30
17948;DHT22;9099;47.958;11.366;2022-08-14T08:45:58;30.10;94.30
17948;DHT22;9099;47.958;11.366;2022-08-14T08:48:26;30.60;93.40
17948;DHT22;9099;47.958;11.366;2022-08-14T08:50:55;30.90;92.90
17948;DHT22;9099;47.958;11.366;2022-08-14T08:53:28;30.90;91.70
17948;DHT22;9099;47.958;11.366;2022-08-14T08:55:56;31.40;91.80
17948;DHT22;9099;47.958;11.366;2022-08-14T08:58:25;31.80;92.30
17948;DHT22;9099;47.958;11.366;2022-08-14T09:00:54;32.40;90.40
17948;DHT22;9099;47.958;11.366;2022-08-14T09:03:24;33.00;89.50
17948;DHT22;9099;47.958;11.366;2022-08-14T09:05:53;33.40;86.80
17948;DHT22;9099;47.958;11.366;2022-08-14T09:08:22;33.40;86.50
17948;DHT22;9099;47.958;11.366;2022-08-14T09:10:50;33.00;83.10
17948;DHT22;9099;47.958;11.366;2022-08-14T09:13:18;32.90;85.10
17948;DHT22;9099;47.958;11.366;2022-08-14T09:15:48;33.20;86.90
17948;DHT22;9099;47.958;11.366;2022-08-14T09:18:17;33.50;87.50
17948;DHT22;9099;47.958;11.366;2022-08-14T09:20:46;33.90;83.70
17948;DHT22;9099;47.958;11.366;2022-08-14T09:23:13;34.20;85.30
17948;DHT22;9099;47.958;11.366;2022-08-14T09:25:42;34.50;81.60
17948;DHT22;9099;47.958;11.366;2022-08-14T09:28:10;34.40;85.20
17948;DHT22;9099;47.958;11.366;2022-08-14T09:30:40;34.60;84.60
17948;DHT22;9099;47.958;11.366;2022-08-14T09:33:26;34.90;80.40
17948;DHT22;9099;47.958;11.366;2022-08-14T09:39:00;34.80;83.30
17948;DHT22;9099;47.958;11.366;2022-08-14T09:41:36;34.80;78.80
17948;DHT22;9099;47.958;11.366;2022-08-14T09:44:15;34.10;78.80
17948;DHT22;9099;47.958;11.366;2022-08-14T09:46:51;33.90;80.30
17948;DHT22;9099;47.958;11.366;2022-08-14T09:49:29;34.00;84.10
17948;DHT22;9099;47.958;11.366;2022-08-14T09:52:03;34.30;80.10
17948;DHT22;9099;47.958;11.366;2022-08-14T09:54:39;34.50;80.50
17948;DHT22;9099;47.958;11.366;2022-08-14T09:57:08;34.50;80.20
17948;DHT22;9099;47.958;11.366;2022-08-14T09:59:43;34.30;79.60
17948;DHT22;9099;47.958;11.366;2022-08-14T10:02:19;34.50;79.90
17948;DHT22;9099;47.958;11.366;2022-08-14T10:05:01;34.70;78.60
17948;DHT22;9099;47.958;11.366;2022-08-14T10:07:30;34.50;77.70
17948;DHT22;9099;47.958;11.366;2022-08-14T10:09:57;34.70;81.50
17948;DHT22;9099;47.958;11.366;2022-08-14T10:12:26;35.50;78.10
17948;DHT22;9099;47.958;11.366;2022-08-14T10:14:55;35.90;80.10
17948;DHT22;9099;47.958;11.366;2022-08-14T10:17:22;35.80;77.20
17948;DHT22;9099;47.958;11.366;2022-08-14T10:19:52;35.80;79.10
17948;DHT22;9099;47.958;11.366;2022-08-14T10:22:24;35.80;73.30
17948;DHT22;9099;47.958;11.366;2022-08-14T10:24:57;35.40;78.80
17948;DHT22;9099;47.958;11.366;2022-08-14T10:27:35;35.30;82.20
17948;DHT22;9099;47.958;11.366;2022-08-14T10:30:02;35.30;78.10
17948;DHT22;9099;47.958;11.366;2022-08-14T10:32:29;35.50;79.40
17948;DHT22;9099;47.958;11.366;2022-08-14T10:35:09;35.40;79.10
17948;DHT22;9099;47.958;11.366;2022-08-14T10:37:38;35.10;81.50
17948;DHT22;9099;47.958;11.366;2022-08-14T10:40:06;34.90;77.50
17948;DHT22;9099;47.958;11.366;2022-08-14T10:42:35;34.80;77.60
17948;DHT22;9099;47.958;11.366;2022-08-14T10:45:03;34.90;76.10
17948;DHT22;9099;47.958;11.366;2022-08-14T10:47:33;35.00;76.90
17948;DHT22;9099;47.958;11.366;2022-08-14T10:50:01;35.00;74.80
17948;DHT22;9099;47.958;11.366;2022-08-14T10:52:31;35.20;79.90
17948;DHT22;9099;47.958;11.366;2022-08-14T10:55:06;35.80;76.60
17948;DHT22;9099;47.958;11.366;2022-08-14T10:57:33;36.10;75.90
17948;DHT22;9099;47.958;11.366;2022-08-14T11:00:11;35.80;75.80
17948;DHT22;9099;47.958;11.366;2022-08-14T11:02:40;36.20;75.90
17948;DHT22;9099;47.958;11.366;2022-08-14T11:05:09;36.40;74.00
17948;DHT22;9099;47.958;11.366;2022-08-14T11:07:40;36.00;74.20
17948;DHT22;9099;47.958;11.366;2022-08-14T11:10:10;36.20;73.50
17948;DHT22;9099;47.958;11.366;2022-08-14T11:12:42;36.20;74.00
17948;DHT22;9099;47.958;11.366;2022-08-14T11:15:15;36.10;74.90
17948;DHT22;9099;47.958;11.366;2022-08-14T11:17:43;35.70;72.80
17948;DHT22;9099;47.958;11.366;2022-08-14T11:20:13;35.80;74.40
17948;DHT22;9099;47.958;11.366;2022-08-14T11:22:42;35.80;75.00
17948;DHT22;9099;47.958;11.366;2022-08-14T11:25:11;35.90;74.30
17948;DHT22;9099;47.958;11.366;2022-08-14T11:27:41;35.80;75.70
17948;DHT22;9099;47.958;11.366;2022-08-14T11:30:11;35.50;75.70
17948;DHT22;9099;47.958;11.366;2022-08-14T11:32:39;35.30;73.50
17948;DHT22;9099;47.958;11.366;2022-08-14T11:35:11;35.00;72.70
17948;DHT22;9099;47.958;11.366;2022-08-14T11:37:53;34.30;75.10
17948;DHT22;9099;47.958;11.366;2022-08-14T11:40:21;33.90;76.60
17948;DHT22;9099;47.958;11.366;2022-08-14T11:42:50;34.40;78.70
17948;DHT22;9099;47.958;11.366;2022-08-14T11:45:18;34.40;76.00
17948;DHT22;9099;47.958;11.366;2022-08-14T11:47:45;34.30;76.00
17948;DHT22;9099;47.958;11.366;2022-08-14T11:50:14;34.50;81.30
17948;DHT22;9099;47.958;11.366;2022-08-14T11:52:43;34.40;78.70
17948;DHT22;9099;47.958;11.366;2022-08-14T11:55:13;34.70;80.90
17948;DHT22;9099;47.958;11.366;2022-08-14T11:57:42;34.30;75.70
17948;DHT22;9099;47.958;11.366;2022-08-14T12:00:11;34.80;78.30
17948;DHT22;9099;47.958;11.366;2022-08-14T12:02:49;35.10;79.10
17948;DHT22;9099;47.958;11.366;2022-08-14T12:05:27;35.70;77.20
17948;DHT22;9099;47.958;11.366;2022-08-14T12:07:56;35.90;75.20
17948;DHT22;9099;47.958;11.366;2022-08-14T12:10:24;36.30;71.30
17948;DHT22;9099;47.958;11.366;2022-08-14T12:12:51;36.60;75.10
17948;DHT22;9099;47.958;11.366;2022-08-14T12:15:39;36.90;74.50
17948;DHT22;9099;47.958;11.366;2022-08-14T12:18:07;37.20;76.20
17948;DHT22;9099;47.958;11.366;2022-08-14T12:20:36;37.30;72.10
17948;DHT22;9099;47.958;11.366;2022-08-14T12:23:04;37.40;68.80
17948;DHT22;9099;47.958;11.366;2022-08-14T12:25:33;37.40;72.60
17948;DHT22;9099;47.958;11.366;2022-08-14T12:28:02;37.10;72.10
17948;DHT22;9099;47.958;11.366;2022-08-14T12:30:35;37.00;71.30
17948;DHT22;9099;47.958;11.366;2022-08-14T12:33:03;37.00;67.70
17948;DHT22;9099;47.958;11.366;2022-08-14T12:35:39;36.50;69.60
17948;DHT22;9099;47.958;11.366;2022-08-14T12:38:08;35.90;67.20
17948;DHT22;9099;47.958;11.366;2022-08-14T12:40:46;35.80;71.10
17948;DHT22;9099;47.958;11.366;2022-08-14T12:43:13;36.10;71.90
17948;DHT22;9099;47.958;11.366;2022-08-14T12:45:46;36.30;73.30
17948;DHT22;9099;47.958;11.366;2022-08-14T12:48:16;35.90;67.00
17948;DHT22;9099;47.958;11.366;2022-08-14T12:50:43;36.00;73.10
17948;DHT22;9099;47.958;11.366;2022-08-14T12:53:11;36.10;68.30
17948;DHT22;9099;47.958;11.366;2022-08-14T12:55:40;36.20;70.80
17948;DHT22;9099;47.958;11.366;2022-08-14T12:58:08;36.70;66.30
17948;DHT22;9099;47.958;11.366;2022-08-14T13:00:37;36.30;70.60
17948;DHT22;9099;47.958;11.366;2022-08-14T13:03:05;36.70;68.70
17948;DHT22;9099;47.958;11.366;2022-08-14T13:05:33;36.70;65.80
17948;DHT22;9099;47.958;11.366;2022-08-14T13:08:04;36.60;63.60
17948;DHT22;9099;47.958;11.366;2022-08-14T13:10:33;36.30;63.50
17948;DHT22;9099;47.958;11.366;2022-08-14T13:13:00;36.30;65.90
17948;DHT22;9099;47.958;11.366;2022-08-14T13:15:29;36.30;61.90
17948;DHT22;9099;47.958;11.366;2022-08-14T13:17:57;36.40;65.70
17948;DHT22;9099;47.958;11.366;2022-08-14T13:20:26;36.60;62.40
17948;DHT22;9099;47.958;11.366;2022-08-14T13:22:54;36.70;64.60
17948;DHT22;9099;47.958;11.366;2022-08-14T13:25:23;36.70;65.30
17948;DHT22;9099;47.958;11.366;2022-08-14T13:27:53;36.40;64.10
17948;DHT22;9099;47.958;11.366;2022-08-14T13:30:22;36.30;65.40
17948;DHT22;9099;47.958;11.366;2022-08-14T13:32:53;36.40;65.30
17948;DHT22;9099;47.958;11.366;2022-08-14T13:35:21;36.20;67.00
17948;DHT22;9099;47.958;11.366;2022-08-14T13:37:49;36.30;67.10
17948;DHT22;9099;47.958;11.366;2022-08-14T13:40:18;36.30;62.90
17948;DHT22;9099;47.958;11.366;2022-08-14T13:42:47;36.20;61.20
17948;DHT22;9099;47.958;11.366;2022-08-14T13:45:16;36.30;63.30
17948;DHT22;9099;47.958;11.366;2022-08-14T13:47:44;36.30;67.40
17948;DHT22;9099;47.958;11.366;2022-08-14T13:50:13;36.30;67.30
17948;DHT22;9099;47.958;11.366;2022-08-14T13:52:43;36.40;67.50
17948;DHT22;9099;47.958;11.366;2022-08-14T13:55:11;36.50;62.80
17948;DHT22;9099;47.958;11.366;2022-08-14T13:57:40;36.70;63.30
17948;DHT22;9099;47.958;11.366;2022-08-14T14:00:10;36.80;61.60
17948;DHT22;9099;47.958;11.366;2022-08-14T14:02:38;36.70;61.90
17948;DHT22;9099;47.958;11.366;2022-08-14T14:05:07;36.70;65.60
17948;DHT22;9099;47.958;11.366;2022-08-14T14:07:36;36.40;61.70
17948;DHT22;9099;47.958;11.366;2022-08-14T14:10:06;36.30;66.30
17948;DHT22;9099;47.958;11.366;2022-08-14T14:12:35;36.10;64.20
17948;DHT22;9099;47.958;11.366;2022-08-14T14:15:04;35.60;63.60
17948;DHT22;9099;47.958;11.366;2022-08-14T14:17:34;35.70;61.00
17948;DHT22;9099;47.958;11.366;2022-08-14T14:20:03;35.50;62.30
17948;DHT22;9099;47.958;11.366;2022-08-14T14:22:31;35.40;66.20
17948;DHT22;9099;47.958;11.366;2022-08-14T14:24:59;35.30;62.80
17948;DHT22;9099;47.958;11.366;2022-08-14T14:27:27;35.40;64.30
17948;DHT22;9099;47.958;11.366;2022-08-14T14:29:57;35.30;64.60
17948;DHT22;9099;47.958;11.366;2022-08-14T14:32:28;35.30;65.40
17948;DHT22;9099;47.958;11.366;2022-08-14T14:34:58;35.10;64.10
17948;DHT22;9099;47.958;11.366;2022-08-14T14:37:27;35.00;66.50
17948;DHT22;9099;47.958;11.366;2022-08-14T14:39:55;35.20;67.00
17948;DHT22;9099;47.958;11.366;2022-08-14T14:42:28;35.40;68.90
17948;DHT22;9099;47.958;11.366;2022-08-14T14:45:02;35.40;67.30
17948;DHT22;9099;47.958;11.366;2022-08-14T14:47:31;35.20;65.80
17948;DHT22;9099;47.958;11.366;2022-08-14T14:50:00;35.10;66.50
17948;DHT22;9099;47.958;11.366;2022-08-14T14:52:30;35.10;64.40
17948;DHT22;9099;47.958;11.366;2022-08-14T14:54:59;35.20;63.40
17948;DHT22;9099;47.958;11.366;2022-08-14T14:57:28;35.10;64.90
17948;DHT22;9099;47.958;11.366;2022-08-14T14:59:56;34.90;63.80
17948;DHT22;9099;47.958;11.366;2022-08-14T15:02:32;34.70;66.60
17948;DHT22;9099;47.958;11.366;2022-08-14T15:04:59;34.70;70.00
17948;DHT22;9099;47.958;11.366;2022-08-14T15:07:27;34.70;70.80
17948;DHT22;9099;47.958;11.366;2022-08-14T15:09:55;34.70;67.40
17948;DHT22;9099;47.958;11.366;2022-08-14T15:12:22;34.60;67.50
17948;DHT22;9099;47.958;11.366;2022-08-14T15:14:50;34.40;67.20
17948;DHT22;9099;47.958;11.366;2022-08-14T15:17:17;34.20;67.40
17948;DHT22;9099;47.958;11.366;2022-08-14T15:19:46;34.00;67.20
17948;DHT22;9099;47.958;11.366;2022-08-14T15:22:14;33.90;66.60
17948;DHT22;9099;47.958;11.366;2022-08-14T15:24:42;33.80;67.90
17948;DHT22;9099;47.958;11.366;2022-08-14T15:27:09;33.80;66.60
17948;DHT22;9099;47.958;11.366;2022-08-14T15:29:37;33.90;68.90
17948;DHT22;9099;47.958;11.366;2022-08-14T15:32:07;33.70;67.50
17948;DHT22;9099;47.958;11.366;2022-08-14T15:34:35;33.50;67.20
17948;DHT22;9099;47.958;11.366;2022-08-14T15:37:04;33.30;67.00
17948;DHT22;9099;47.958;11.366;2022-08-14T15:39:31;33.20;67.70
17948;DHT22;9099;47.958;11.366;2022-08-14T15:41:58;33.20;68.50
17948;DHT22;9099;47.958;11.366;2022-08-14T15:44:28;33.40;69.30
17948;DHT22;9099;47.958;11.366;2022-08-14T15:46:57;33.40;68.50